Time;durP1;ratioP1;P1;durP2;ratioP2;P2;SDS_P1;SDS_P2;PMS_P1;PMS_P2;Temp;Humidity;BMP_temperature;BMP_pressure;BME280_temperature;BME280_humidity;BME280_pressure;Samples;Min_cycle;Max_cycle;Signal;HPM_P1;HPM_P2
2022/06/20 00:01:05;;;;;;;4.72;4.53;;;;;;;-143.83;100.00;62900.06;5030742;28;20424;-61
2022/06/20 00:03:38;;;;;;;5.00;4.80;;;;;;;-143.83;100.00;62900.06;5033483;28;20098;-61
2022/06/20 00:06:04;;;;;;;4.90;4.70;;;;;;;-143.83;100.00;62900.06;5030878;28;20042;-60
2022/06/20 00:08:30;;;;;;;4.90;4.70;;;;;;;-143.83;100.00;62900.06;5032994;28;20558;-60
2022/06/20 00:10:55;;;;;;;4.85;4.65;;;;;;;-143.83;100.00;62900.06;5032946;28;20028;-60
2022/06/20 00:13:33;;;;;;;4.93;4.72;;;;;;;-143.83;100.00;62900.06;5031148;28;20044;-60
2022/06/20 00:16:00;;;;;;;4.90;4.70;;;;;;;-143.83;100.00;62900.06;5020706;28;20408;-61
2022/06/20 00:18:30;;;;;;;5.00;4.80;;;;;;;-143.83;100.00;62900.06;5032784;28;20025;-60
2022/06/20 00:20:56;;;;;;;4.90;4.70;;;;;;;-143.83;100.00;62900.06;5030783;28;20029;-60
2022/06/20 00:23:22;;;;;;;5.00;4.80;;;;;;;-143.83;100.00;62900.06;5021406;28;20020;-60
2022/06/20 00:25:48;;;;;;;5.00;4.80;;;;;;;-143.83;100.00;62900.06;5020314;28;20058;-61
2022/06/20 00:28:15;;;;;;;4.88;4.68;;;;;;;-143.83;100.00;62900.06;5032710;28;20052;-60
2022/06/20 00:30:41;;;;;;;5.10;4.90;;;;;;;-143.83;100.00;62900.06;5031728;28;20033;-63
2022/06/20 00:33:06;;;;;;;4.80;4.60;;;;;;;-143.83;100.00;62900.06;5032979;28;20386;-60
2022/06/20 00:35:34;;;;;;;5.10;4.90;;;;;;;-143.83;100.00;62900.06;5032315;28;20044;-60
2022/06/20 00:38:02;;;;;;;5.00;4.80;;;;;;;-143.83;100.00;62900.06;5032509;28;20037;-61
2022/06/20 00:40:33;;;;;;;4.90;4.70;;;;;;;-143.83;100.00;62900.06;5022465;28;20029;-60
2022/06/20 00:42:59;;;;;;;4.80;4.60;;;;;;;-143.83;100.00;62900.06;5030054;28;20029;-60
2022/06/20 00:45:27;;;;;;;4.90;4.70;;;;;;;-143.83;100.00;62900.06;5032667;28;20024;-60
2022/06/20 00:48:00;;;;;;;5.07;4.88;;;;;;;-143.83;100.00;62900.06;5031650;28;20427;-62
2022/06/20 00:50:29;;;;;;;5.10;4.90;;;;;;;-143.83;100.00;62900.06;5032307;28;20034;-62
2022/06/20 00:53:06;;;;;;;4.90;4.70;;;;;;;-143.83;100.00;62900.06;5023359;28;20022;-60
2022/06/20 00:56:18;;;;;;;5.00;4.80;;;;;;;-143.83;100.00;62900.06;5027591;28;20072;-61
2022/06/20 00:58:58;;;;;;;5.03;4.82;;;;;;;-143.83;100.00;62900.06;5031611;28;20509;-60
2022/06/20 01:01:38;;;;;;;4.95;4.75;;;;;;;-143.83;100.00;62900.06;5024909;28;20108;-60
2022/06/20 01:04:13;;;;;;;4.95;4.75;;;;;;;-143.83;100.00;62900.06;5031433;28;20052;-60
2022/06/20 01:06:45;;;;;;;4.90;4.70;;;;;;;-143.83;100.00;62900.06;5031875;28;20053;-60
2022/06/20 01:09:13;;;;;;;5.00;4.80;;;;;;;-143.83;100.00;62900.06;5032082;28;20017;-60
2022/06/20 01:11:49;;;;;;;4.97;4.78;;;;;;;-143.83;100.00;62900.06;5029192;28;20043;-60
2022/06/20 01:14:28;;;;;;;4.97;4.78;;;;;;;-143.83;100.00;62900.06;5032547;28;20488;-61
2022/06/20 01:16:58;;;;;;;5.00;4.80;;;;;;;-143.83;100.00;62900.06;5031947;28;20539;-61
2022/06/20 01:20:08;;;;;;;5.05;4.85;;;;;;;-143.83;100.00;62900.06;5031979;28;20427;-60
2022/06/20 01:22:43;;;;;;;5.00;4.80;;;;;;;-143.83;100.00;62900.06;5015486;28;20042;-61
2022/06/20 01:25:38;;;;;;;4.95;4.75;;;;;;;-143.83;100.00;62900.06;5031957;28;20083;-60
2022/06/20 01:28:09;;;;;;;4.80;4.60;;;;;;;-143.83;100.00;62900.06;5024805;28;20041;-60
2022/06/20 01:30:40;;;;;;;5.05;4.85;;;;;;;-143.83;100.00;62900.06;5035073;28;20028;-60
2022/06/20 01:33:06;;;;;;;4.80;4.60;;;;;;;-143.83;100.00;62900.06;5038420;28;20618;-61
2022/06/20 01:38:18;;;;;;;4.90;4.70;;;;;;;-143.83;100.00;62900.06;5031054;28;20134;-60
2022/06/20 01:43:31;;;;;;;5.00;4.80;;;;;;;-143.83;100.00;62900.06;5025566;28;20095;-60
2022/06/20 01:45:58;;;;;;;4.90;4.70;;;;;;;-143.83;100.00;62900.06;5024684;28;20080;-60
2022/06/20 01:48:27;;;;;;;4.88;4.68;;;;;;;-143.83;100.00;62900.06;5034035;28;20049;-61
2022/06/20 01:50:53;;;;;;;4.78;4.57;;;;;;;-143.83;100.00;62900.06;5035778;28;20021;-61
2022/06/20 01:53:22;;;;;;;4.90;4.70;;;;;;;-143.83;100.00;62900.06;5035570;28;20048;-62
2022/06/20 01:55:51;;;;;;;4.80;4.60;;;;;;;-143.83;100.00;62900.06;5034530;28;20037;-61
2022/06/20 01:58:30;;;;;;;4.80;4.60;;;;;;;-143.83;100.00;62900.06;5035683;28;20029;-62
2022/06/20 02:00:58;;;;;;;4.85;4.65;;;;;;;-143.83;100.00;62900.06;5033634;28;20040;-60
2022/06/20 02:03:23;;;;;;;5.00;4.80;;;;;;;-143.83;100.00;62900.06;5035653;28;20026;-61
2022/06/20 02:05:54;;;;;;;4.80;4.60;;;;;;;-143.83;100.00;62900.06;5035719;28;20047;-59
2022/06/20 02:08:22;;;;;;;4.88;4.68;;;;;;;-143.83;100.00;62900.06;5027552;28;20026;-62
2022/06/20 02:10:59;;;;;;;4.65;4.45;;;;;;;-143.83;100.00;62900.06;5035120;28;20025;-62
2022/06/20 02:13:28;;;;;;;4.85;4.65;;;;;;;-143.83;100.00;62900.06;5034501;28;20037;-61
2022/06/20 02:15:59;;;;;;;4.88;4.68;;;;;;;-143.83;100.00;62900.06;5034495;28;20030;-61
2022/06/20 02:18:29;;;;;;;4.80;4.60;;;;;;;-143.83;100.00;62900.06;5032018;28;20119;-60
2022/06/20 02:21:00;;;;;;;4.80;4.60;;;;;;;-143.83;100.00;62900.06;5033180;28;20037;-61
2022/06/20 02:23:30;;;;;;;4.80;4.60;;;;;;;-143.83;100.00;62900.06;5034994;28;20052;-60
2022/06/20 02:25:56;;;;;;;4.95;4.75;;;;;;;-143.83;100.00;62900.06;5034965;28;20049;-60
2022/06/20 02:28:33;;;;;;;4.70;4.50;;;;;;;-143.83;100.00;62900.06;5034837;28;20665;-61
2022/06/20 02:30:59;;;;;;;4.82;4.63;;;;;;;-143.83;100.00;62900.06;5032027;28;20034;-60
2022/06/20 02:33:29;;;;;;;4.70;4.50;;;;;;;-143.83;100.00;62900.06;5034795;28;20036;-61
2022/06/20 02:35:57;;;;;;;4.80;4.60;;;;;;;-143.83;100.00;62900.06;5029097;28;20486;-61
2022/06/20 02:38:23;;;;;;;4.90;4.70;;;;;;;-143.83;100.00;62900.06;5029726;28;20090;-62
2022/06/20 02:40:51;;;;;;;4.80;4.60;;;;;;;-143.83;100.00;62900.06;5035538;28;20029;-61
2022/06/20 02:43:24;;;;;;;4.80;4.60;;;;;;;-143.83;100.00;62900.06;5034920;28;20053;-60
2022/06/20 02:45:51;;;;;;;4.90;4.70;;;;;;;-143.83;100.00;62900.06;5033963;28;20047;-60
2022/06/20 02:48:18;;;;;;;5.05;4.85;;;;;;;-143.83;100.00;62900.06;5034676;28;20045;-61
2022/06/20 02:50:54;;;;;;;4.90;4.70;;;;;;;-143.83;100.00;62900.06;5034887;28;20028;-60
2022/06/20 02:53:30;;;;;;;5.00;4.80;;;;;;;-143.83;100.00;62900.06;5017285;28;20389;-61
2022/06/20 02:55:56;;;;;;;5.00;4.80;;;;;;;-143.83;100.00;62900.06;5028058;28;20037;-60
2022/06/20 02:58:28;;;;;;;5.10;4.90;;;;;;;-143.83;100.00;62900.06;5034209;28;20393;-61
2022/06/20 03:01:01;;;;;;;4.97;4.78;;;;;;;-143.83;100.00;62900.06;5034218;28;20365;-61
2022/06/20 03:03:32;;;;;;;5.10;4.90;;;;;;;-143.83;100.00;62900.06;5033403;28;20025;-61
2022/06/20 03:05:58;;;;;;;5.15;4.95;;;;;;;-143.83;100.00;62900.06;5034181;28;20120;-61
2022/06/20 03:08:25;;;;;;;5.25;5.05;;;;;;;-143.83;100.00;62900.06;5032229;28;20112;-61
2022/06/20 03:10:53;;;;;;;5.35;5.15;;;;;;;-143.83;100.00;62900.06;5034100;28;20036;-61
2022/06/20 03:13:20;;;;;;;5.38;5.18;;;;;;;-143.83;100.00;62900.06;5032619;28;20018;-61
2022/06/20 03:15:47;;;;;;;5.22;5.03;;;;;;;-143.83;100.00;62900.06;5033978;28;20021;-61
2022/06/20 03:18:17;;;;;;;5.40;5.20;;;;;;;-143.83;100.00;62900.06;5015281;28;20385;-60
2022/06/20 03:20:45;;;;;;;5.40;5.20;;;;;;;-143.83;100.00;62900.06;5021893;28;20029;-61
2022/06/20 03:23:23;;;;;;;5.40;5.20;;;;;;;-143.83;100.00;62900.06;5033048;28;20030;-61
2022/06/20 03:25:51;;;;;;;5.50;5.30;;;;;;;-143.83;100.00;62900.06;5033335;28;20021;-61
2022/06/20 03:28:19;;;;;;;5.30;5.10;;;;;;;-143.83;100.00;62900.06;5033604;28;20087;-61
2022/06/20 03:30:46;;;;;;;5.40;5.20;;;;;;;-143.83;100.00;62900.06;5046759;28;20625;-61
2022/06/20 03:33:14;;;;;;;5.50;5.30;;;;;;;-143.83;100.00;62900.06;5034265;28;20033;-62
2022/06/20 03:35:44;;;;;;;5.60;5.40;;;;;;;-143.83;100.00;62900.06;5016830;28;20091;-61
2022/06/20 03:38:12;;;;;;;5.60;5.40;;;;;;;-143.83;100.00;62900.06;5026237;28;20067;-60
2022/06/20 03:40:41;;;;;;;5.70;5.50;;;;;;;-143.83;100.00;62900.06;5024957;28;20018;-61
2022/06/20 03:43:10;;;;;;;5.50;5.30;;;;;;;-143.83;100.00;62900.06;5033306;28;20021;-61
2022/06/20 03:45:41;;;;;;;5.65;5.45;;;;;;;-143.83;100.00;62900.06;5033392;28;20037;-61
2022/06/20 03:48:18;;;;;;;5.60;5.40;;;;;;;-143.83;100.00;62900.06;5044954;28;20052;-62
2022/06/20 03:50:56;;;;;;;5.78;5.57;;;;;;;-143.83;100.00;62900.06;5019168;28;20026;-61
2022/06/20 03:53:45;;;;;;;5.63;5.43;;;;;;;-143.83;100.00;62900.06;5033602;28;20111;-61
2022/06/20 03:56:18;;;;;;;5.70;5.50;;;;;;;-143.83;100.00;62900.06;5033272;28;20038;-61
2022/06/20 03:58:51;;;;;;;5.78;5.57;;;;;;;-143.83;100.00;62900.06;5030340;28;20037;-61
2022/06/20 04:01:26;;;;;;;;;;;;;;;-143.83;100.00;62900.06;5024359;28;20025;-61
2022/06/20 04:04:06;;;;;;;;;;;;;;;-143.83;100.00;62900.06;5038952;28;19915;-60
2022/06/20 04:06:52;;;;;;;5.88;5.68;;;;;;;-143.83;100.00;62900.06;5035020;28;19913;-61
2022/06/20 04:12:18;;;;;;;5.90;5.70;;;;;;;-143.83;100.00;62900.06;5016232;28;20084;-60
2022/06/20 04:14:55;;;;;;;5.82;5.63;;;;;;;-143.83;100.00;62900.06;5028774;28;20065;-61
2022/06/20 04:20:37;;;;;;;6.00;5.80;;;;;;;-143.83;100.00;62900.06;5033432;28;20740;-62
2022/06/20 04:23:11;;;;;;;6.15;5.90;;;;;;;-143.83;100.00;62900.06;5026707;28;20121;-61
2022/06/20 04:25:45;;;;;;;6.00;5.80;;;;;;;-143.83;100.00;62900.06;5032595;28;20037;-61
2022/06/20 04:28:25;;;;;;;6.00;5.80;;;;;;;-143.83;100.00;62900.06;5031768;28;20562;-62
2022/06/20 04:30:58;;;;;;;6.10;5.90;;;;;;;-143.83;100.00;62900.06;5024847;28;20040;-62
2022/06/20 04:34:08;;;;;;;6.20;6.00;;;;;;;-143.83;100.00;62900.06;5024025;28;20029;-61
2022/06/20 04:37:12;;;;;;;6.00;5.80;;;;;;;-143.83;100.00;62900.06;5021910;28;20274;-62
2022/06/20 04:39:51;;;;;;;6.47;6.17;;;;;;;-143.83;100.00;62900.06;5040059;28;20378;-61
2022/06/20 04:42:32;;;;;;;6.07;5.88;;;;;;;-143.83;100.00;62900.06;5031157;28;20060;-63
2022/06/20 04:45:10;;;;;;;6.35;6.07;;;;;;;-143.83;100.00;62900.06;5028376;28;20030;-63
2022/06/20 04:47:44;;;;;;;6.18;5.97;;;;;;;-143.83;100.00;62900.06;5031848;28;20037;-64
2022/06/20 04:50:17;;;;;;;6.10;5.90;;;;;;;-143.83;100.00;62900.06;5029275;28;20038;-63
2022/06/20 04:52:44;;;;;;;6.20;6.00;;;;;;;-143.83;100.00;62900.06;5029755;28;20021;-63
2022/06/20 04:55:15;;;;;;;6.40;6.10;;;;;;;-143.83;100.00;62900.06;5030318;28;20116;-63
2022/06/20 04:57:41;;;;;;;6.20;6.00;;;;;;;-143.83;100.00;62900.06;5032000;28;20026;-63
2022/06/20 05:00:15;;;;;;;6.07;5.88;;;;;;;-143.83;100.00;62900.06;5029710;28;20401;-63
2022/06/20 05:02:40;;;;;;;6.20;6.00;;;;;;;-143.83;100.00;62900.06;5022037;28;20040;-64
2022/06/20 05:05:12;;;;;;;6.40;6.10;;;;;;;-143.83;100.00;62900.06;5031767;28;20017;-63
2022/06/20 05:07:39;;;;;;;6.47;6.18;;;;;;;-143.83;100.00;62900.06;5031676;28;20025;-63
2022/06/20 05:10:18;;;;;;;6.13;5.93;;;;;;;-143.83;100.00;62900.06;5031773;28;20036;-63
2022/06/20 05:12:51;;;;;;;6.40;6.10;;;;;;;-143.83;100.00;62900.06;5033721;28;20036;-64
2022/06/20 05:15:21;;;;;;;6.50;6.20;;;;;;;-143.83;100.00;62900.06;5024975;28;20045;-64
2022/06/20 05:17:49;;;;;;;6.18;5.97;;;;;;;-143.83;100.00;62900.06;5020360;28;20111;-62
2022/06/20 05:20:36;;;;;;;6.38;6.10;;;;;;;-143.83;100.00;62900.06;5026213;28;20030;-64
2022/06/20 05:23:11;;;;;;;6.22;6.03;;;;;;;-143.83;100.00;62900.06;5028039;28;20141;-64
2022/06/20 05:25:37;;;;;;;6.18;5.97;;;;;;;-143.83;100.00;62900.06;5028334;28;20554;-62
2022/06/20 05:28:10;;;;;;;6.07;5.88;;;;;;;-143.83;100.00;62900.06;5028232;28;20029;-63
2022/06/20 05:30:36;;;;;;;;;;;;;;;-143.83;100.00;62900.06;5030014;28;20029;-63
2022/06/20 05:33:23;;;;;;;6.47;6.18;;;;;;;-143.83;100.00;62900.06;5026659;28;19921;-63
2022/06/20 05:36:04;;;;;;;5.93;5.72;;;;;;;-143.83;100.00;62900.06;5022125;28;20044;-64
2022/06/20 05:38:39;;;;;;;6.13;5.93;;;;;;;-143.83;100.00;62900.06;5029142;28;20037;-63
2022/06/20 05:41:07;;;;;;;5.97;5.78;;;;;;;-143.83;100.00;62900.06;5020878;28;20029;-63
2022/06/20 05:43:35;;;;;;;6.05;5.85;;;;;;;-143.83;100.00;62900.06;5038189;28;20025;-63
2022/06/20 05:46:06;;;;;;;6.18;5.97;;;;;;;-143.83;100.00;62900.06;5035671;28;20043;-63
2022/06/20 05:48:45;;;;;;;6.35;6.07;;;;;;;-143.83;100.00;62900.06;5026377;28;20546;-63
2022/06/20 05:51:15;;;;;;;6.50;6.20;;;;;;;-143.83;100.00;62900.06;5025527;28;20031;-63
2022/06/20 05:53:52;;;;;;;6.40;6.10;;;;;;;-143.83;100.00;62900.06;5025286;28;20066;-64
2022/06/20 05:56:27;;;;;;;6.10;5.90;;;;;;;-143.83;100.00;62900.06;5023964;28;20108;-64
2022/06/20 05:58:55;;;;;;;6.40;6.10;;;;;;;-143.83;100.00;62900.06;5024141;28;20108;-62
2022/06/20 06:01:38;;;;;;;6.13;5.93;;;;;;;-143.83;100.00;62900.06;5032476;28;20029;-63
2022/06/20 06:04:25;;;;;;;6.00;5.80;;;;;;;-143.83;100.00;62900.06;5034820;28;20026;-63
2022/06/20 06:06:57;;;;;;;6.40;6.10;;;;;;;-143.83;100.00;62900.06;5027288;28;20043;-63
2022/06/20 06:09:29;;;;;;;6.00;5.80;;;;;;;-143.83;100.00;62900.06;5024413;28;20384;-64
2022/06/20 06:12:01;;;;;;;6.05;5.85;;;;;;;-143.83;100.00;62900.06;5028121;28;20037;-62
2022/06/20 06:14:39;;;;;;;6.13;5.93;;;;;;;-143.83;100.00;62900.06;5021659;28;20021;-63
2022/06/20 06:17:20;;;;;;;6.10;5.90;;;;;;;-143.83;100.00;62900.06;5022532;28;20041;-62
2022/06/20 06:19:54;;;;;;;6.18;5.97;;;;;;;-143.83;100.00;62900.06;5028289;28;20021;-63
2022/06/20 06:22:32;;;;;;;6.30;6.05;;;;;;;-143.83;100.00;62900.06;5027014;28;20025;-62
2022/06/20 06:25:16;;;;;;;6.20;6.00;;;;;;;-143.83;100.00;62900.06;5027029;28;20036;-63
2022/06/20 06:27:44;;;;;;;6.05;5.85;;;;;;;-143.83;100.00;62900.06;5025940;28;20061;-63
2022/06/20 06:30:20;;;;;;;6.18;5.97;;;;;;;-143.83;100.00;62900.06;5025437;28;20064;-63
2022/06/20 06:32:51;;;;;;;6.10;5.90;;;;;;;-143.83;100.00;62900.06;5024718;28;20038;-63
2022/06/20 06:35:30;;;;;;;6.00;5.80;;;;;;;-143.83;100.00;62900.06;5024753;28;20100;-68
2022/06/20 06:38:09;;;;;;;6.18;5.97;;;;;;;-143.83;100.00;62900.06;5031904;28;20293;-65
2022/06/20 06:40:50;;;;;;;5.90;5.70;;;;;;;-143.83;100.00;62900.06;5024110;28;20110;-69
2022/06/20 06:43:32;;;;;;;5.97;5.78;;;;;;;-143.83;100.00;62900.06;5027552;28;20033;-63
2022/06/20 06:46:00;;;;;;;6.32;6.07;;;;;;;-143.83;100.00;62900.06;5021020;28;20489;-63
2022/06/20 06:48:35;;;;;;;6.40;6.10;;;;;;;-143.83;100.00;62900.06;5022360;28;20057;-63
2022/06/20 06:51:09;;;;;;;6.50;6.20;;;;;;;-143.83;100.00;62900.06;5028571;28;20051;-63
2022/06/20 06:53:35;;;;;;;6.30;6.00;;;;;;;-143.83;100.00;62900.06;5027422;28;20128;-63
2022/06/20 06:56:06;;;;;;;5.82;5.63;;;;;;;-143.83;100.00;62900.06;5026297;28;20038;-64
2022/06/20 06:58:35;;;;;;;6.10;5.90;;;;;;;-143.83;100.00;62900.06;5031114;28;20518;-64
2022/06/20 07:01:11;;;;;;;6.00;5.80;;;;;;;-143.83;100.00;62900.06;5018224;28;20056;-63
2022/06/20 07:03:42;;;;;;;5.90;5.70;;;;;;;-143.83;100.00;62900.06;5027034;28;20480;-63
2022/06/20 07:06:36;;;;;;;6.05;5.85;;;;;;;-143.83;100.00;62900.06;5028870;28;20108;-63
2022/06/20 07:09:32;;;;;;;6.18;5.97;;;;;;;-143.83;100.00;62900.06;5009563;28;20075;-65
2022/06/20 07:12:23;;;;;;;6.20;6.00;;;;;;;-143.83;100.00;62900.06;5025534;28;20040;-64
2022/06/20 07:15:14;;;;;;;6.05;5.85;;;;;;;-143.83;100.00;62900.06;5000115;28;20083;-64
2022/06/20 07:17:39;;;;;;;6.15;5.95;;;;;;;-143.83;100.00;62900.06;5021845;28;20086;-63
2022/06/20 07:20:05;;;;;;;5.88;5.68;;;;;;;-143.83;100.00;62900.06;5030381;28;20032;-64
2022/06/20 07:22:31;;;;;;;5.85;5.65;;;;;;;-143.83;100.00;62900.06;5032900;28;20068;-63
2022/06/20 07:24:57;;;;;;;5.97;5.78;;;;;;;-143.83;100.00;62900.06;5026704;28;20123;-63
2022/06/20 07:27:40;;;;;;;6.07;5.88;;;;;;;-143.83;100.00;62900.06;5028434;28;20022;-63
2022/06/20 07:30:39;;;;;;;5.90;5.70;;;;;;;-143.83;100.00;62900.06;5025685;28;20089;-64
2022/06/20 07:33:42;;;;;;;6.00;5.80;;;;;;;-143.83;100.00;62900.06;5024869;28;20037;-63
2022/06/20 07:36:10;;;;;;;5.65;5.45;;;;;;;-143.83;100.00;62900.06;5023709;28;20037;-63
2022/06/20 07:38:47;;;;;;;5.72;5.53;;;;;;;-143.83;100.00;62900.06;5020056;28;20509;-62
2022/06/20 07:41:16;;;;;;;5.90;5.70;;;;;;;-143.83;100.00;62900.06;5016270;28;20042;-63
2022/06/20 07:43:52;;;;;;;5.78;5.57;;;;;;;-143.83;100.00;62900.06;5024701;28;20600;-62
2022/06/20 07:46:32;;;;;;;5.70;5.50;;;;;;;-143.83;100.00;62900.06;5025584;28;20033;-61
2022/06/20 07:49:04;;;;;;;5.60;5.40;;;;;;;-143.83;100.00;62900.06;5017336;28;20063;-63
2022/06/20 07:51:37;;;;;;;5.68;5.47;;;;;;;-143.83;100.00;62900.06;5030189;28;20044;-61
2022/06/20 07:54:11;;;;;;;5.70;5.50;;;;;;;-143.83;100.00;62900.06;5024460;28;20033;-62
2022/06/20 07:56:53;;;;;;;5.60;5.40;;;;;;;-143.83;100.00;62900.06;5012794;28;20076;-64
2022/06/20 07:59:36;;;;;;;5.70;5.50;;;;;;;-143.83;100.00;62900.06;5017835;28;20029;-64
2022/06/20 08:02:15;;;;;;;5.72;5.53;;;;;;;-143.83;100.00;62900.06;5022146;28;20033;-66
2022/06/20 08:04:44;;;;;;;5.65;5.45;;;;;;;-143.83;100.00;62900.06;5019087;28;20029;-66
2022/06/20 08:07:24;;;;;;;5.60;5.40;;;;;;;-143.83;100.00;62900.06;5022219;28;20030;-65
2022/06/20 08:09:49;;;;;;;5.70;5.50;;;;;;;-143.83;100.00;62900.06;5026100;28;20024;-64
2022/06/20 08:12:29;;;;;;;5.78;5.57;;;;;;;-143.83;100.00;62900.06;5026486;28;20560;-65
2022/06/20 08:15:02;;;;;;;5.70;5.50;;;;;;;-143.83;100.00;62900.06;5028343;28;20489;-65
2022/06/20 08:17:30;;;;;;;5.60;5.40;;;;;;;-143.83;100.00;62900.06;5019597;28;20257;-66
2022/06/20 08:19:57;;;;;;;5.80;5.60;;;;;;;-143.83;100.00;62900.06;5024773;28;20026;-65
2022/06/20 08:22:34;;;;;;;5.63;5.43;;;;;;;-143.83;100.00;62900.06;5016990;28;20033;-65
2022/06/20 08:25:09;;;;;;;5.50;5.30;;;;;;;-143.83;100.00;62900.06;5038988;28;20378;-65
2022/06/20 08:27:56;;;;;;;5.60;5.40;;;;;;;-143.83;100.00;62900.06;5023521;28;20048;-66
2022/06/20 08:30:31;;;;;;;5.50;5.30;;;;;;;-143.83;100.00;62900.06;5036987;28;20064;-66
2022/06/20 08:33:05;;;;;;;5.50;5.30;;;;;;;-143.83;100.00;62900.06;5027014;28;20098;-65
2022/06/20 08:35:41;;;;;;;5.57;5.38;;;;;;;-143.83;100.00;62900.06;5029151;28;20079;-64
2022/06/20 08:38:21;;;;;;;5.70;5.50;;;;;;;-143.83;100.00;62900.06;5015418;28;20033;-65
2022/06/20 08:41:02;;;;;;;5.60;5.40;;;;;;;-143.83;100.00;62900.06;5023695;28;20155;-64
2022/06/20 08:43:27;;;;;;;5.80;5.60;;;;;;;-143.83;100.00;62900.06;5018016;28;20846;-65
2022/06/20 08:46:14;;;;;;;5.25;5.05;;;;;;;-143.83;100.00;62900.06;5025715;28;20033;-64
2022/06/20 08:48:42;;;;;;;5.50;5.30;;;;;;;-143.83;100.00;62900.06;5026193;28;20528;-64
2022/06/20 08:51:27;;;;;;;5.80;5.60;;;;;;;-143.83;100.00;62900.06;5022910;28;20022;-65
2022/06/20 08:54:01;;;;;;;;;;;;;;;-143.83;100.00;62900.06;5020631;28;20112;-66
2022/06/20 08:56:45;;;;;;;5.40;5.20;;;;;;;-143.83;100.00;62900.06;5020806;28;19917;-64
2022/06/20 09:00:05;;;;;;;5.43;5.22;;;;;;;-143.83;100.00;62900.06;5026509;28;20135;-64
2022/06/20 09:03:00;;;;;;;5.50;5.30;;;;;;;-143.83;100.00;62900.06;4979152;28;20030;-64
2022/06/20 09:05:43;;;;;;;5.53;5.32;;;;;;;-143.83;100.00;62900.06;5011844;28;20049;-64
2022/06/20 09:08:27;;;;;;;5.45;5.25;;;;;;;-143.83;100.00;62900.06;5018292;28;20104;-64
2022/06/20 09:11:02;;;;;;;5.60;5.40;;;;;;;-143.83;100.00;62900.06;5024518;28;20053;-64
2022/06/20 09:14:05;;;;;;;5.60;5.40;;;;;;;-143.83;100.00;62900.06;5020524;28;20115;-63
2022/06/20 09:16:43;;;;;;;5.25;5.05;;;;;;;-143.83;100.00;62900.06;5012837;28;20083;-65
2022/06/20 09:19:42;;;;;;;5.30;5.10;;;;;;;-143.83;100.00;62900.06;5021639;28;20040;-64
2022/06/20 09:22:39;;;;;;;5.40;5.20;;;;;;;-143.83;100.00;62900.06;5020222;28;20064;-66
2022/06/20 09:25:17;;;;;;;5.43;5.22;;;;;;;-143.83;100.00;62900.06;5016432;28;20025;-66
2022/06/20 09:27:45;;;;;;;5.38;5.18;;;;;;;-143.83;100.00;62900.06;5025977;28;20043;-65
2022/06/20 09:30:17;;;;;;;5.43;5.22;;;;;;;-143.83;100.00;62900.06;5026640;28;20028;-63
2022/06/20 09:33:13;;;;;;;5.43;5.22;;;;;;;-143.83;100.00;62900.06;5016728;28;20053;-63
2022/06/20 09:36:01;;;;;;;5.40;5.20;;;;;;;-143.83;100.00;62900.06;5019129;28;20037;-63
2022/06/20 09:39:01;;;;;;;5.25;5.05;;;;;;;-143.83;100.00;62900.06;5029144;28;20040;-64
2022/06/20 09:41:57;;;;;;;5.40;5.20;;;;;;;-143.83;100.00;62900.06;5025727;28;20041;-64
2022/06/20 09:44:47;;;;;;;5.43;5.22;;;;;;;-143.83;100.00;62900.06;5023775;28;20029;-63
2022/06/20 09:47:41;;;;;;;5.50;5.30;;;;;;;-143.83;100.00;62900.06;5027213;28;20048;-63
2022/06/20 09:50:29;;;;;;;5.40;5.20;;;;;;;-143.83;100.00;62900.06;5024462;28;20069;-63
2022/06/20 09:53:24;;;;;;;5.40;5.20;;;;;;;-143.83;100.00;62900.06;4998350;28;20049;-62
2022/06/20 09:55:58;;;;;;;;;;;;;;;-143.83;100.00;62900.06;4998964;28;20099;-62
2022/06/20 09:59:04;;;;;;;5.40;5.20;;;;;;;-143.83;100.00;62900.06;5023790;28;19917;-62
2022/06/20 10:01:35;;;;;;;5.47;5.28;;;;;;;-143.83;100.00;62900.06;5001216;28;20044;-62
2022/06/20 10:04:11;;;;;;;5.57;5.38;;;;;;;-143.83;100.00;62900.06;5023427;28;20048;-63
2022/06/20 10:06:40;;;;;;;5.30;5.10;;;;;;;-143.83;100.00;62900.06;5020736;28;20155;-61
2022/06/20 10:09:24;;;;;;;5.50;5.30;;;;;;;-143.83;100.00;62900.06;5018484;28;20060;-61
2022/06/20 10:11:52;;;;;;;5.47;5.28;;;;;;;-143.83;100.00;62900.06;5032837;28;20033;-63
2022/06/20 10:14:51;;;;;;;5.35;5.15;;;;;;;-143.83;100.00;62900.06;5021198;28;20045;-63
2022/06/20 10:17:31;;;;;;;5.50;5.30;;;;;;;-143.83;100.00;62900.06;5030307;28;20056;-64
2022/06/20 10:20:12;;;;;;;5.30;5.10;;;;;;;-143.83;100.00;62900.06;5027963;28;20029;-62
2022/06/20 10:22:56;;;;;;;5.28;5.07;;;;;;;-143.83;100.00;62900.06;5025778;28;20084;-63
2022/06/20 10:25:22;;;;;;;5.43;5.22;;;;;;;-143.83;100.00;62900.06;5016768;28;20030;-62
2022/06/20 10:28:02;;;;;;;5.30;5.10;;;;;;;-143.83;100.00;62900.06;5020225;28;20041;-64
2022/06/20 10:30:52;;;;;;;5.40;5.20;;;;;;;-143.83;100.00;62900.06;5019082;28;20032;-63
2022/06/20 10:33:26;;;;;;;5.28;5.07;;;;;;;-143.83;100.00;62900.06;5016596;28;20175;-63
2022/06/20 10:36:07;;;;;;;5.32;5.13;;;;;;;-143.83;100.00;62900.06;5025320;28;20095;-63
2022/06/20 10:38:58;;;;;;;5.40;5.20;;;;;;;-143.83;100.00;62900.06;5020598;28;20054;-64
2022/06/20 10:42:02;;;;;;;5.28;5.07;;;;;;;-143.83;100.00;62900.06;5001334;28;20045;-64
2022/06/20 10:45:00;;;;;;;5.40;5.20;;;;;;;-143.83;100.00;62900.06;5027147;28;20569;-63
2022/06/20 10:47:49;;;;;;;5.30;5.10;;;;;;;-143.83;100.00;62900.06;5026087;28;20040;-64
2022/06/20 10:50:46;;;;;;;5.43;5.22;;;;;;;-143.83;100.00;62900.06;5023003;28;20072;-63
2022/06/20 10:53:39;;;;;;;5.43;5.22;;;;;;;-143.83;100.00;62900.06;5022733;28;20041;-63
2022/06/20 10:56:29;;;;;;;5.20;5.00;;;;;;;-143.83;100.00;62900.06;5015648;28;20055;-63
2022/06/20 10:58:54;;;;;;;5.60;5.40;;;;;;;-143.83;100.00;62900.06;5014882;28;20048;-62
2022/06/20 11:01:58;;;;;;;5.50;5.30;;;;;;;-143.83;100.00;62900.06;5021781;28;20033;-64
2022/06/20 11:04:38;;;;;;;5.60;5.40;;;;;;;-143.83;100.00;62900.06;4998302;28;22259;-64
2022/06/20 11:07:03;;;;;;;5.40;5.20;;;;;;;-143.83;100.00;62900.06;4996951;28;20042;-64
2022/06/20 11:10:07;;;;;;;5.40;5.20;;;;;;;-143.83;100.00;62900.06;5010539;28;20053;-63
2022/06/20 11:13:00;;;;;;;5.32;5.13;;;;;;;-143.83;100.00;62900.06;5006087;28;20075;-64
2022/06/20 11:15:42;;;;;;;5.40;5.20;;;;;;;-143.83;100.00;62900.06;5022721;28;20041;-63
2022/06/20 11:18:32;;;;;;;5.40;5.20;;;;;;;-143.83;100.00;62900.06;5021686;28;20048;-64
2022/06/20 11:20:58;;;;;;;5.40;5.20;;;;;;;-143.83;100.00;62900.06;5025776;28;20476;-63
2022/06/20 11:23:47;;;;;;;5.50;5.30;;;;;;;-143.83;100.00;62900.06;5027081;28;20079;-63
2022/06/20 11:26:39;;;;;;;5.30;5.10;;;;;;;-143.83;100.00;62900.06;5024705;28;20431;-63
2022/06/20 11:29:14;;;;;;;5.25;5.05;;;;;;;-143.83;100.00;62900.06;5018429;28;20028;-63
2022/06/20 11:32:38;;;;;;;5.38;5.18;;;;;;;-143.83;100.00;62900.06;5019350;28;21399;-66
2022/06/20 11:35:42;;;;;;;5.43;5.22;;;;;;;-143.83;100.00;62900.06;4966568;28;20034;-65
2022/06/20 11:38:28;;;;;;;5.20;5.00;;;;;;;-143.83;100.00;62900.06;4979296;28;20050;-63
2022/06/20 11:40:57;;;;;;;5.38;5.18;;;;;;;-143.83;100.00;62900.06;5019948;28;20041;-63
2022/06/20 11:43:31;;;;;;;5.38;5.18;;;;;;;-143.83;100.00;62900.06;5029196;28;20038;-65
2022/06/20 11:46:35;;;;;;;5.40;5.20;;;;;;;-143.83;100.00;62900.06;5027046;28;20025;-64
2022/06/20 11:49:22;;;;;;;5.35;5.15;;;;;;;-143.83;100.00;62900.06;5024892;28;20061;-64
2022/06/20 11:51:55;;;;;;;5.30;5.10;;;;;;;-143.83;100.00;62900.06;5031119;28;20025;-64
2022/06/20 11:54:40;;;;;;;5.22;5.03;;;;;;;-143.83;100.00;62900.06;5032136;28;20042;-65
2022/06/20 11:57:34;;;;;;;5.32;5.13;;;;;;;-143.83;100.00;62900.06;5028983;28;20415;-64
2022/06/20 12:00:25;;;;;;;5.32;5.13;;;;;;;-143.83;100.00;62900.06;5015058;28;20041;-65
2022/06/20 12:03:12;;;;;;;5.20;5.00;;;;;;;-143.83;100.00;62900.06;5024703;28;20044;-65
2022/06/20 12:05:58;;;;;;;5.40;5.20;;;;;;;-143.83;100.00;62900.06;5030631;28;20079;-65